Accueil
METAR-TAF:

METAR-TAF

Aéroports :

Londres-Heathrow, Angleterre

Aéroport de Londres-Heathrow

latitude: 51-29N, longitude: 000-27W, altitude: 24 m

Observation

Le bulletin a été fait il y a 16 minutes, à 00:20 UTC
Vent 7 kt de est
Température 0°C
Humidité 74%
Pression 1020 hPa
Visibilité 10 km ou plus

METAR: EGLL 240020Z AUTO 10007KT 9999 NCD 00/M04 Q1020 NOSIG

Heure: 00:36 (00:36 UTC)

Prévision

Le bulletin a été fait il y a 1 heure et 45 minutes, à 22:51 UTC
Prévision valable du 24 à 00 UTC au 25 à 06 UTC
Vent 8 kt de est
Visibilité 10 km ou plus
Nuages épars à une hauteur de 2500 ft
Probabilité 30% :
Temporairement
du 24 à 00 UTC au 24 à 08 UTC
Visibilité: 8000 m
Temporairement
du 24 à 14 UTC au 24 à 21 UTC
Vent 15 kt de est avec des rafales jusqu'à 25 kt

TAF: EGLL 232251Z 2400/2506 08008KT 9999 SCT025 PROB30 TEMPO 2400/2408 8000 TEMPO 2414/2421 08015G25KT

Observations et prévisions météorologiques de plus de 4000 aéroports (messages METAR et TAF).

Les stations disponibles sont représentées par des disques jaunes et rouges sur la carte.

Passer la souris dessus pour voir le nom de la station.

Cliquer dessus pour voir les observations et prévisions météorologiques.

Pour changer de carte: cliquez sur les boutons verts avec une croix noire pour zoomer, sur le bouton vert avec un tiret pour effectuer un zoom arrière, ou sur les flèches vertes pour les cartes adjacentes.


METAR-TAF: